sensor_id;sensor_type;location;lat;lon;timestamp;P1;durP1;ratioP1;P2;durP2;ratioP2
32200;SDS011;18701;45.588;5.288;2023-08-24T00:01:15;6.82;;;1.55;;
32200;SDS011;18701;45.588;5.288;2023-08-24T00:03:43;10.45;;;1.55;;
32200;SDS011;18701;45.588;5.288;2023-08-24T00:06:10;6.63;;;1.02;;
32200;SDS011;18701;45.588;5.288;2023-08-24T00:08:36;11.98;;;1.45;;
32200;SDS011;18701;45.588;5.288;2023-08-24T00:11:02;4.70;;;1.20;;
32200;SDS011;18701;45.588;5.288;2023-08-24T00:13:29;15.27;;;1.88;;
32200;SDS011;18701;45.588;5.288;2023-08-24T00:15:55;8.35;;;1.92;;
32200;SDS011;18701;45.588;5.288;2023-08-24T00:18:21;5.13;;;1.25;;
32200;SDS011;18701;45.588;5.288;2023-08-24T00:20:47;9.20;;;1.42;;
32200;SDS011;18701;45.588;5.288;2023-08-24T00:23:13;8.80;;;1.92;;
32200;SDS011;18701;45.588;5.288;2023-08-24T00:25:39;9.32;;;1.77;;
32200;SDS011;18701;45.588;5.288;2023-08-24T00:28:06;5.55;;;1.48;;
32200;SDS011;18701;45.588;5.288;2023-08-24T00:30:36;4.57;;;1.55;;
32200;SDS011;18701;45.588;5.288;2023-08-24T00:33:02;5.82;;;1.80;;
32200;SDS011;18701;45.588;5.288;2023-08-24T00:35:27;8.35;;;1.83;;
32200;SDS011;18701;45.588;5.288;2023-08-24T00:37:53;10.13;;;2.15;;
32200;SDS011;18701;45.588;5.288;2023-08-24T00:40:19;5.95;;;1.88;;
32200;SDS011;18701;45.588;5.288;2023-08-24T00:42:44;4.50;;;1.35;;
32200;SDS011;18701;45.588;5.288;2023-08-24T00:45:13;7.35;;;1.70;;
32200;SDS011;18701;45.588;5.288;2023-08-24T00:47:40;10.65;;;1.95;;
32200;SDS011;18701;45.588;5.288;2023-08-24T00:50:07;8.95;;;1.48;;
32200;SDS011;18701;45.588;5.288;2023-08-24T00:52:33;11.68;;;1.60;;
32200;SDS011;18701;45.588;5.288;2023-08-24T00:55:02;8.23;;;1.70;;
32200;SDS011;18701;45.588;5.288;2023-08-24T00:57:28;7.70;;;1.67;;
32200;SDS011;18701;45.588;5.288;2023-08-24T00:59:55;5.45;;;1.55;;
32200;SDS011;18701;45.588;5.288;2023-08-24T01:02:21;9.10;;;1.83;;
32200;SDS011;18701;45.588;5.288;2023-08-24T01:04:46;9.55;;;1.70;;
32200;SDS011;18701;45.588;5.288;2023-08-24T01:07:13;9.05;;;1.20;;
32200;SDS011;18701;45.588;5.288;2023-08-24T01:09:39;8.57;;;1.75;;
32200;SDS011;18701;45.588;5.288;2023-08-24T01:17:37;5.25;;;1.35;;
32200;SDS011;18701;45.588;5.288;2023-08-24T01:20:04;4.78;;;1.90;;
32200;SDS011;18701;45.588;5.288;2023-08-24T01:25:15;8.48;;;1.42;;
32200;SDS011;18701;45.588;5.288;2023-08-24T01:27:42;8.52;;;1.50;;
32200;SDS011;18701;45.588;5.288;2023-08-24T01:30:08;3.83;;;1.20;;
32200;SDS011;18701;45.588;5.288;2023-08-24T01:32:35;6.18;;;1.38;;
32200;SDS011;18701;45.588;5.288;2023-08-24T01:35:01;13.27;;;1.98;;
32200;SDS011;18701;45.588;5.288;2023-08-24T01:37:35;5.90;;;1.70;;
32200;SDS011;18701;45.588;5.288;2023-08-24T01:42:35;6.43;;;1.83;;
32200;SDS011;18701;45.588;5.288;2023-08-24T01:45:07;6.25;;;1.50;;
32200;SDS011;18701;45.588;5.288;2023-08-24T01:47:35;11.13;;;1.42;;
32200;SDS011;18701;45.588;5.288;2023-08-24T01:50:03;9.32;;;1.60;;
32200;SDS011;18701;45.588;5.288;2023-08-24T01:52:29;5.75;;;1.58;;
32200;SDS011;18701;45.588;5.288;2023-08-24T01:54:56;8.02;;;1.73;;
32200;SDS011;18701;45.588;5.288;2023-08-24T01:57:22;9.43;;;2.17;;
32200;SDS011;18701;45.588;5.288;2023-08-24T01:59:48;19.20;;;2.83;;
32200;SDS011;18701;45.588;5.288;2023-08-24T02:02:13;7.88;;;1.85;;
32200;SDS011;18701;45.588;5.288;2023-08-24T02:04:39;8.32;;;1.80;;
32200;SDS011;18701;45.588;5.288;2023-08-24T02:07:04;9.10;;;2.00;;
32200;SDS011;18701;45.588;5.288;2023-08-24T02:09:30;3.45;;;1.42;;
32200;SDS011;18701;45.588;5.288;2023-08-24T02:11:56;6.95;;;1.40;;
32200;SDS011;18701;45.588;5.288;2023-08-24T02:14:22;14.45;;;2.55;;
32200;SDS011;18701;45.588;5.288;2023-08-24T02:16:47;2.53;;;1.65;;
32200;SDS011;18701;45.588;5.288;2023-08-24T02:19:13;4.72;;;2.15;;
32200;SDS011;18701;45.588;5.288;2023-08-24T02:21:39;7.50;;;1.80;;
32200;SDS011;18701;45.588;5.288;2023-08-24T02:24:04;3.83;;;1.60;;
32200;SDS011;18701;45.588;5.288;2023-08-24T02:26:30;4.45;;;1.52;;
32200;SDS011;18701;45.588;5.288;2023-08-24T02:28:56;8.60;;;1.67;;
32200;SDS011;18701;45.588;5.288;2023-08-24T02:31:22;7.88;;;1.50;;
32200;SDS011;18701;45.588;5.288;2023-08-24T02:33:48;10.55;;;2.00;;
32200;SDS011;18701;45.588;5.288;2023-08-24T02:36:14;8.05;;;1.70;;
32200;SDS011;18701;45.588;5.288;2023-08-24T02:38:40;5.97;;;1.63;;
32200;SDS011;18701;45.588;5.288;2023-08-24T02:41:06;3.72;;;1.60;;
32200;SDS011;18701;45.588;5.288;2023-08-24T02:43:35;11.55;;;2.20;;
32200;SDS011;18701;45.588;5.288;2023-08-24T02:46:01;10.98;;;2.08;;
32200;SDS011;18701;45.588;5.288;2023-08-24T02:48:31;4.97;;;1.65;;
32200;SDS011;18701;45.588;5.288;2023-08-24T02:51:01;5.28;;;1.65;;
32200;SDS011;18701;45.588;5.288;2023-08-24T02:53:28;10.65;;;1.70;;
32200;SDS011;18701;45.588;5.288;2023-08-24T02:55:54;6.45;;;1.83;;
32200;SDS011;18701;45.588;5.288;2023-08-24T02:58:20;7.30;;;2.08;;
32200;SDS011;18701;45.588;5.288;2023-08-24T03:00:46;5.30;;;1.95;;
32200;SDS011;18701;45.588;5.288;2023-08-24T03:03:13;6.47;;;1.50;;
32200;SDS011;18701;45.588;5.288;2023-08-24T03:05:40;11.98;;;1.90;;
32200;SDS011;18701;45.588;5.288;2023-08-24T03:08:05;13.02;;;2.22;;
32200;SDS011;18701;45.588;5.288;2023-08-24T03:10:34;8.55;;;2.00;;
32200;SDS011;18701;45.588;5.288;2023-08-24T03:13:00;5.32;;;1.52;;
32200;SDS011;18701;45.588;5.288;2023-08-24T03:15:26;5.95;;;1.60;;
32200;SDS011;18701;45.588;5.288;2023-08-24T03:17:52;4.35;;;1.50;;
32200;SDS011;18701;45.588;5.288;2023-08-24T03:20:17;10.38;;;1.92;;
32200;SDS011;18701;45.588;5.288;2023-08-24T03:22:44;9.50;;;1.92;;
32200;SDS011;18701;45.588;5.288;2023-08-24T03:25:10;9.55;;;2.10;;
32200;SDS011;18701;45.588;5.288;2023-08-24T03:27:35;7.47;;;1.45;;
32200;SDS011;18701;45.588;5.288;2023-08-24T03:30:01;6.15;;;1.65;;
32200;SDS011;18701;45.588;5.288;2023-08-24T03:32:30;9.05;;;1.75;;
32200;SDS011;18701;45.588;5.288;2023-08-24T03:34:59;10.73;;;2.10;;
32200;SDS011;18701;45.588;5.288;2023-08-24T03:37:25;6.72;;;1.58;;
32200;SDS011;18701;45.588;5.288;2023-08-24T03:39:50;12.13;;;2.33;;
32200;SDS011;18701;45.588;5.288;2023-08-24T03:42:16;6.38;;;1.73;;
32200;SDS011;18701;45.588;5.288;2023-08-24T03:44:42;6.50;;;1.85;;
32200;SDS011;18701;45.588;5.288;2023-08-24T03:47:07;9.52;;;1.83;;
32200;SDS011;18701;45.588;5.288;2023-08-24T03:49:33;9.57;;;2.15;;
32200;SDS011;18701;45.588;5.288;2023-08-24T03:51:59;8.27;;;1.67;;
32200;SDS011;18701;45.588;5.288;2023-08-24T03:54:25;12.13;;;2.67;;
32200;SDS011;18701;45.588;5.288;2023-08-24T03:56:50;6.65;;;1.50;;
32200;SDS011;18701;45.588;5.288;2023-08-24T03:59:16;11.23;;;1.70;;
32200;SDS011;18701;45.588;5.288;2023-08-24T04:01:42;15.05;;;2.20;;
32200;SDS011;18701;45.588;5.288;2023-08-24T04:04:08;8.15;;;2.08;;
32200;SDS011;18701;45.588;5.288;2023-08-24T04:06:33;7.32;;;2.13;;
32200;SDS011;18701;45.588;5.288;2023-08-24T04:08:59;16.23;;;1.90;;
32200;SDS011;18701;45.588;5.288;2023-08-24T04:11:24;5.90;;;1.50;;
32200;SDS011;18701;45.588;5.288;2023-08-24T04:13:50;15.98;;;2.40;;
32200;SDS011;18701;45.588;5.288;2023-08-24T04:16:15;6.35;;;2.20;;
32200;SDS011;18701;45.588;5.288;2023-08-24T04:18:41;9.07;;;2.08;;
32200;SDS011;18701;45.588;5.288;2023-08-24T04:21:07;13.75;;;2.38;;
32200;SDS011;18701;45.588;5.288;2023-08-24T04:23:33;9.70;;;2.08;;
32200;SDS011;18701;45.588;5.288;2023-08-24T04:25:58;5.65;;;2.33;;
32200;SDS011;18701;45.588;5.288;2023-08-24T04:28:24;9.00;;;2.33;;
32200;SDS011;18701;45.588;5.288;2023-08-24T04:30:53;9.13;;;1.77;;
32200;SDS011;18701;45.588;5.288;2023-08-24T04:33:20;5.68;;;1.90;;
32200;SDS011;18701;45.588;5.288;2023-08-24T04:35:47;7.05;;;2.10;;
32200;SDS011;18701;45.588;5.288;2023-08-24T04:38:13;8.05;;;2.13;;
32200;SDS011;18701;45.588;5.288;2023-08-24T04:40:49;8.13;;;2.30;;
32200;SDS011;18701;45.588;5.288;2023-08-24T04:43:19;12.70;;;2.08;;
32200;SDS011;18701;45.588;5.288;2023-08-24T04:45:49;12.85;;;2.30;;
32200;SDS011;18701;45.588;5.288;2023-08-24T04:48:21;8.18;;;2.22;;
32200;SDS011;18701;45.588;5.288;2023-08-24T04:50:48;11.90;;;2.30;;
32200;SDS011;18701;45.588;5.288;2023-08-24T04:53:15;9.18;;;2.22;;
32200;SDS011;18701;45.588;5.288;2023-08-24T04:55:42;11.93;;;2.50;;
32200;SDS011;18701;45.588;5.288;2023-08-24T04:58:08;11.43;;;2.25;;
32200;SDS011;18701;45.588;5.288;2023-08-24T05:00:35;10.48;;;1.83;;
32200;SDS011;18701;45.588;5.288;2023-08-24T05:03:02;13.00;;;2.60;;
32200;SDS011;18701;45.588;5.288;2023-08-24T05:05:32;13.13;;;2.35;;
32200;SDS011;18701;45.588;5.288;2023-08-24T05:07:58;8.63;;;2.05;;
32200;SDS011;18701;45.588;5.288;2023-08-24T05:10:25;6.90;;;2.47;;
32200;SDS011;18701;45.588;5.288;2023-08-24T05:12:54;13.52;;;2.75;;
32200;SDS011;18701;45.588;5.288;2023-08-24T05:15:20;8.50;;;2.20;;
32200;SDS011;18701;45.588;5.288;2023-08-24T05:17:45;10.02;;;2.10;;
32200;SDS011;18701;45.588;5.288;2023-08-24T05:20:11;14.43;;;2.20;;
32200;SDS011;18701;45.588;5.288;2023-08-24T05:22:37;10.80;;;1.95;;
32200;SDS011;18701;45.588;5.288;2023-08-24T05:25:03;9.65;;;2.28;;
32200;SDS011;18701;45.588;5.288;2023-08-24T05:27:29;8.95;;;2.00;;
32200;SDS011;18701;45.588;5.288;2023-08-24T05:29:55;10.40;;;2.58;;
32200;SDS011;18701;45.588;5.288;2023-08-24T05:32:21;8.63;;;2.30;;
32200;SDS011;18701;45.588;5.288;2023-08-24T05:34:47;13.95;;;2.40;;
32200;SDS011;18701;45.588;5.288;2023-08-24T05:37:12;17.67;;;2.10;;
32200;SDS011;18701;45.588;5.288;2023-08-24T05:39:38;8.73;;;1.85;;
32200;SDS011;18701;45.588;5.288;2023-08-24T05:42:04;7.50;;;1.75;;
32200;SDS011;18701;45.588;5.288;2023-08-24T05:44:30;6.28;;;2.05;;
32200;SDS011;18701;45.588;5.288;2023-08-24T05:46:56;17.08;;;2.10;;
32200;SDS011;18701;45.588;5.288;2023-08-24T05:49:22;15.30;;;2.20;;
32200;SDS011;18701;45.588;5.288;2023-08-24T05:51:51;8.52;;;2.10;;
32200;SDS011;18701;45.588;5.288;2023-08-24T05:54:17;11.25;;;3.40;;
32200;SDS011;18701;45.588;5.288;2023-08-24T05:56:43;20.88;;;2.17;;
32200;SDS011;18701;45.588;5.288;2023-08-24T05:59:10;17.25;;;2.83;;
32200;SDS011;18701;45.588;5.288;2023-08-24T06:01:35;21.20;;;3.72;;
32200;SDS011;18701;45.588;5.288;2023-08-24T06:04:04;15.02;;;3.08;;
32200;SDS011;18701;45.588;5.288;2023-08-24T06:06:30;15.70;;;3.28;;
32200;SDS011;18701;45.588;5.288;2023-08-24T06:08:56;19.92;;;2.78;;
32200;SDS011;18701;45.588;5.288;2023-08-24T06:11:22;11.43;;;2.80;;
32200;SDS011;18701;45.588;5.288;2023-08-24T06:13:48;21.42;;;3.28;;
32200;SDS011;18701;45.588;5.288;2023-08-24T06:16:14;11.02;;;2.88;;
32200;SDS011;18701;45.588;5.288;2023-08-24T06:18:40;11.65;;;2.45;;
32200;SDS011;18701;45.588;5.288;2023-08-24T06:21:05;15.43;;;2.83;;
32200;SDS011;18701;45.588;5.288;2023-08-24T06:23:33;11.75;;;3.13;;
32200;SDS011;18701;45.588;5.288;2023-08-24T06:25:59;10.85;;;2.50;;
32200;SDS011;18701;45.588;5.288;2023-08-24T06:28:26;16.33;;;2.70;;
32200;SDS011;18701;45.588;5.288;2023-08-24T06:30:52;17.13;;;2.33;;
32200;SDS011;18701;45.588;5.288;2023-08-24T06:33:19;11.27;;;2.58;;
32200;SDS011;18701;45.588;5.288;2023-08-24T06:35:45;12.48;;;2.78;;
32200;SDS011;18701;45.588;5.288;2023-08-24T06:38:11;14.35;;;2.42;;
32200;SDS011;18701;45.588;5.288;2023-08-24T06:40:36;15.60;;;2.80;;
32200;SDS011;18701;45.588;5.288;2023-08-24T06:43:02;12.38;;;2.20;;
32200;SDS011;18701;45.588;5.288;2023-08-24T06:45:29;14.55;;;3.10;;
32200;SDS011;18701;45.588;5.288;2023-08-24T06:47:54;9.07;;;2.45;;
32200;SDS011;18701;45.588;5.288;2023-08-24T06:50:20;13.25;;;2.33;;
32200;SDS011;18701;45.588;5.288;2023-08-24T06:52:46;11.43;;;2.13;;
32200;SDS011;18701;45.588;5.288;2023-08-24T06:55:12;8.40;;;3.03;;
32200;SDS011;18701;45.588;5.288;2023-08-24T06:57:38;18.80;;;3.03;;
32200;SDS011;18701;45.588;5.288;2023-08-24T07:00:03;16.13;;;3.05;;
32200;SDS011;18701;45.588;5.288;2023-08-24T07:02:34;13.00;;;3.40;;
32200;SDS011;18701;45.588;5.288;2023-08-24T07:05:01;20.20;;;3.13;;
32200;SDS011;18701;45.588;5.288;2023-08-24T07:07:29;19.98;;;2.75;;
32200;SDS011;18701;45.588;5.288;2023-08-24T07:09:55;11.45;;;2.72;;
32200;SDS011;18701;45.588;5.288;2023-08-24T07:12:21;8.35;;;2.80;;
32200;SDS011;18701;45.588;5.288;2023-08-24T07:14:46;15.93;;;3.00;;
32200;SDS011;18701;45.588;5.288;2023-08-24T07:17:12;12.00;;;2.80;;
32200;SDS011;18701;45.588;5.288;2023-08-24T07:19:38;19.17;;;2.88;;
32200;SDS011;18701;45.588;5.288;2023-08-24T07:22:03;12.27;;;2.13;;
32200;SDS011;18701;45.588;5.288;2023-08-24T07:24:29;14.80;;;2.83;;
32200;SDS011;18701;45.588;5.288;2023-08-24T07:26:55;18.25;;;3.22;;
32200;SDS011;18701;45.588;5.288;2023-08-24T07:29:21;23.30;;;3.33;;
32200;SDS011;18701;45.588;5.288;2023-08-24T07:31:47;13.70;;;3.53;;
32200;SDS011;18701;45.588;5.288;2023-08-24T07:34:13;15.93;;;3.50;;
32200;SDS011;18701;45.588;5.288;2023-08-24T07:36:39;12.25;;;3.05;;
32200;SDS011;18701;45.588;5.288;2023-08-24T07:39:04;14.90;;;3.25;;
32200;SDS011;18701;45.588;5.288;2023-08-24T07:41:30;19.63;;;2.92;;
32200;SDS011;18701;45.588;5.288;2023-08-24T07:43:56;12.98;;;2.90;;
32200;SDS011;18701;45.588;5.288;2023-08-24T07:46:21;18.58;;;3.40;;
32200;SDS011;18701;45.588;5.288;2023-08-24T07:48:47;12.20;;;2.55;;
32200;SDS011;18701;45.588;5.288;2023-08-24T07:51:13;18.40;;;2.92;;
32200;SDS011;18701;45.588;5.288;2023-08-24T07:53:38;13.27;;;2.55;;
32200;SDS011;18701;45.588;5.288;2023-08-24T07:56:04;8.60;;;2.80;;
32200;SDS011;18701;45.588;5.288;2023-08-24T07:58:30;15.68;;;2.70;;
32200;SDS011;18701;45.588;5.288;2023-08-24T08:00:57;15.00;;;2.38;;
32200;SDS011;18701;45.588;5.288;2023-08-24T08:03:23;14.15;;;2.63;;
32200;SDS011;18701;45.588;5.288;2023-08-24T08:05:49;23.92;;;2.90;;
32200;SDS011;18701;45.588;5.288;2023-08-24T08:08:15;14.35;;;2.58;;
32200;SDS011;18701;45.588;5.288;2023-08-24T08:10:41;12.02;;;2.78;;
32200;SDS011;18701;45.588;5.288;2023-08-24T08:13:07;23.10;;;2.90;;
32200;SDS011;18701;45.588;5.288;2023-08-24T08:15:36;13.55;;;2.22;;
32200;SDS011;18701;45.588;5.288;2023-08-24T08:18:03;13.10;;;2.40;;
32200;SDS011;18701;45.588;5.288;2023-08-24T08:20:30;16.25;;;2.45;;
32200;SDS011;18701;45.588;5.288;2023-08-24T08:22:55;13.32;;;2.88;;
32200;SDS011;18701;45.588;5.288;2023-08-24T08:25:21;11.18;;;2.92;;
32200;SDS011;18701;45.588;5.288;2023-08-24T08:27:47;9.73;;;2.55;;
32200;SDS011;18701;45.588;5.288;2023-08-24T08:30:14;14.60;;;2.30;;
32200;SDS011;18701;45.588;5.288;2023-08-24T08:32:40;14.50;;;2.15;;
32200;SDS011;18701;45.588;5.288;2023-08-24T08:35:06;10.63;;;1.90;;
32200;SDS011;18701;45.588;5.288;2023-08-24T08:37:33;8.38;;;1.77;;
32200;SDS011;18701;45.588;5.288;2023-08-24T08:39:59;9.07;;;1.95;;
32200;SDS011;18701;45.588;5.288;2023-08-24T08:42:24;11.57;;;1.98;;
32200;SDS011;18701;45.588;5.288;2023-08-24T08:44:50;9.48;;;1.90;;
32200;SDS011;18701;45.588;5.288;2023-08-24T08:47:19;15.95;;;2.13;;
32200;SDS011;18701;45.588;5.288;2023-08-24T08:49:46;7.20;;;1.77;;
32200;SDS011;18701;45.588;5.288;2023-08-24T08:52:13;11.55;;;1.92;;
32200;SDS011;18701;45.588;5.288;2023-08-24T08:54:39;7.15;;;1.88;;
32200;SDS011;18701;45.588;5.288;2023-08-24T08:57:05;5.28;;;2.33;;
32200;SDS011;18701;45.588;5.288;2023-08-24T08:59:35;13.88;;;2.15;;
32200;SDS011;18701;45.588;5.288;2023-08-24T09:02:04;12.85;;;1.95;;
32200;SDS011;18701;45.588;5.288;2023-08-24T09:04:35;18.55;;;2.55;;
32200;SDS011;18701;45.588;5.288;2023-08-24T09:07:01;9.18;;;1.90;;
32200;SDS011;18701;45.588;5.288;2023-08-24T09:09:35;8.57;;;2.30;;
32200;SDS011;18701;45.588;5.288;2023-08-24T09:12:02;11.18;;;2.22;;
32200;SDS011;18701;45.588;5.288;2023-08-24T09:14:30;6.93;;;2.17;;
32200;SDS011;18701;45.588;5.288;2023-08-24T09:16:55;10.27;;;2.05;;
32200;SDS011;18701;45.588;5.288;2023-08-24T09:19:27;8.52;;;2.08;;
32200;SDS011;18701;45.588;5.288;2023-08-24T09:21:56;13.15;;;1.92;;
32200;SDS011;18701;45.588;5.288;2023-08-24T09:24:32;12.80;;;2.00;;
32200;SDS011;18701;45.588;5.288;2023-08-24T09:26:59;11.15;;;2.05;;
32200;SDS011;18701;45.588;5.288;2023-08-24T09:29:25;9.50;;;1.90;;
32200;SDS011;18701;45.588;5.288;2023-08-24T09:31:51;15.45;;;1.90;;
32200;SDS011;18701;45.588;5.288;2023-08-24T09:34:20;4.78;;;1.60;;
32200;SDS011;18701;45.588;5.288;2023-08-24T09:36:51;12.73;;;1.98;;
32200;SDS011;18701;45.588;5.288;2023-08-24T09:39:17;13.02;;;2.47;;
32200;SDS011;18701;45.588;5.288;2023-08-24T09:41:45;18.77;;;2.30;;
32200;SDS011;18701;45.588;5.288;2023-08-24T09:44:12;8.80;;;2.13;;
32200;SDS011;18701;45.588;5.288;2023-08-24T09:46:38;8.38;;;1.50;;
32200;SDS011;18701;45.588;5.288;2023-08-24T09:49:06;8.13;;;2.28;;
32200;SDS011;18701;45.588;5.288;2023-08-24T09:51:34;8.43;;;1.70;;
32200;SDS011;18701;45.588;5.288;2023-08-24T09:54:08;10.35;;;2.13;;
32200;SDS011;18701;45.588;5.288;2023-08-24T09:56:35;15.93;;;2.53;;
32200;SDS011;18701;45.588;5.288;2023-08-24T09:59:13;17.98;;;1.92;;
32200;SDS011;18701;45.588;5.288;2023-08-24T10:01:47;10.73;;;1.83;;
32200;SDS011;18701;45.588;5.288;2023-08-24T10:04:23;8.10;;;1.95;;
32200;SDS011;18701;45.588;5.288;2023-08-24T10:06:55;11.93;;;1.90;;
32200;SDS011;18701;45.588;5.288;2023-08-24T10:09:31;16.58;;;1.40;;
32200;SDS011;18701;45.588;5.288;2023-08-24T10:12:03;11.88;;;1.83;;
32200;SDS011;18701;45.588;5.288;2023-08-24T10:16:57;13.52;;;2.10;;
32200;SDS011;18701;45.588;5.288;2023-08-24T10:19:23;9.57;;;2.00;;
32200;SDS011;18701;45.588;5.288;2023-08-24T10:21:50;16.48;;;1.80;;
32200;SDS011;18701;45.588;5.288;2023-08-24T10:24:18;10.25;;;1.85;;
32200;SDS011;18701;45.588;5.288;2023-08-24T10:26:48;15.25;;;1.98;;
32200;SDS011;18701;45.588;5.288;2023-08-24T10:29:16;16.73;;;2.13;;
32200;SDS011;18701;45.588;5.288;2023-08-24T10:31:42;10.70;;;1.73;;
32200;SDS011;18701;45.588;5.288;2023-08-24T10:34:09;11.48;;;1.90;;
32200;SDS011;18701;45.588;5.288;2023-08-24T10:36:37;11.52;;;1.95;;
32200;SDS011;18701;45.588;5.288;2023-08-24T10:39:04;12.80;;;1.75;;
32200;SDS011;18701;45.588;5.288;2023-08-24T10:41:50;15.82;;;1.92;;
32200;SDS011;18701;45.588;5.288;2023-08-24T10:44:36;13.10;;;1.63;;
32200;SDS011;18701;45.588;5.288;2023-08-24T10:47:13;17.83;;;2.10;;
32200;SDS011;18701;45.588;5.288;2023-08-24T10:54:56;13.85;;;2.10;;
32200;SDS011;18701;45.588;5.288;2023-08-24T10:57:23;16.20;;;2.63;;
32200;SDS011;18701;45.588;5.288;2023-08-24T11:00:06;13.40;;;1.65;;
32200;SDS011;18701;45.588;5.288;2023-08-24T11:02:42;9.80;;;1.88;;
32200;SDS011;18701;45.588;5.288;2023-08-24T11:05:16;16.13;;;1.88;;
32200;SDS011;18701;45.588;5.288;2023-08-24T11:10:32;9.77;;;1.90;;
32200;SDS011;18701;45.588;5.288;2023-08-24T11:13:17;6.72;;;2.03;;
32200;SDS011;18701;45.588;5.288;2023-08-24T11:15:48;19.00;;;1.77;;
32200;SDS011;18701;45.588;5.288;2023-08-24T11:18:26;7.60;;;1.98;;
32200;SDS011;18701;45.588;5.288;2023-08-24T11:21:05;7.43;;;1.60;;
32200;SDS011;18701;45.588;5.288;2023-08-24T11:23:34;9.82;;;2.20;;
32200;SDS011;18701;45.588;5.288;2023-08-24T11:26:00;10.00;;;2.13;;
32200;SDS011;18701;45.588;5.288;2023-08-24T11:28:27;6.70;;;1.98;;
32200;SDS011;18701;45.588;5.288;2023-08-24T11:30:55;10.13;;;1.77;;
32200;SDS011;18701;45.588;5.288;2023-08-24T11:35:56;9.90;;;1.60;;
32200;SDS011;18701;45.588;5.288;2023-08-24T11:38:22;8.73;;;2.10;;
32200;SDS011;18701;45.588;5.288;2023-08-24T11:40:48;5.35;;;1.65;;
32200;SDS011;18701;45.588;5.288;2023-08-24T11:43:26;7.78;;;1.65;;
32200;SDS011;18701;45.588;5.288;2023-08-24T11:45:52;10.30;;;1.52;;
32200;SDS011;18701;45.588;5.288;2023-08-24T11:48:23;5.22;;;1.48;;
32200;SDS011;18701;45.588;5.288;2023-08-24T11:50:54;5.72;;;1.80;;
32200;SDS011;18701;45.588;5.288;2023-08-24T11:53:20;10.93;;;1.35;;
32200;SDS011;18701;45.588;5.288;2023-08-24T11:55:47;5.82;;;1.75;;
32200;SDS011;18701;45.588;5.288;2023-08-24T11:58:13;7.07;;;1.15;;
32200;SDS011;18701;45.588;5.288;2023-08-24T12:00:41;9.18;;;1.73;;
32200;SDS011;18701;45.588;5.288;2023-08-24T12:03:07;11.45;;;2.00;;
32200;SDS011;18701;45.588;5.288;2023-08-24T12:05:34;5.38;;;1.65;;
32200;SDS011;18701;45.588;5.288;2023-08-24T12:08:00;5.22;;;1.58;;
32200;SDS011;18701;45.588;5.288;2023-08-24T12:10:26;4.25;;;1.58;;
32200;SDS011;18701;45.588;5.288;2023-08-24T12:13:00;12.48;;;1.67;;
32200;SDS011;18701;45.588;5.288;2023-08-24T12:15:35;9.73;;;1.83;;
32200;SDS011;18701;45.588;5.288;2023-08-24T12:18:11;3.00;;;1.42;;
32200;SDS011;18701;45.588;5.288;2023-08-24T12:20:39;8.82;;;1.75;;
32200;SDS011;18701;45.588;5.288;2023-08-24T12:23:06;7.82;;;1.77;;
32200;SDS011;18701;45.588;5.288;2023-08-24T12:25:35;9.88;;;1.80;;
32200;SDS011;18701;45.588;5.288;2023-08-24T12:30:48;5.65;;;1.80;;
32200;SDS011;18701;45.588;5.288;2023-08-24T12:33:30;4.85;;;1.55;;
32200;SDS011;18701;45.588;5.288;2023-08-24T12:35:59;13.07;;;1.83;;
32200;SDS011;18701;45.588;5.288;2023-08-24T12:38:25;7.18;;;1.60;;
32200;SDS011;18701;45.588;5.288;2023-08-24T12:40:52;12.30;;;1.67;;
32200;SDS011;18701;45.588;5.288;2023-08-24T12:43:18;7.10;;;1.80;;
32200;SDS011;18701;45.588;5.288;2023-08-24T12:45:44;10.13;;;1.90;;
32200;SDS011;18701;45.588;5.288;2023-08-24T12:48:10;13.73;;;1.75;;
32200;SDS011;18701;45.588;5.288;2023-08-24T12:50:36;12.50;;;2.20;;
32200;SDS011;18701;45.588;5.288;2023-08-24T12:53:03;14.20;;;1.67;;
32200;SDS011;18701;45.588;5.288;2023-08-24T12:55:31;5.45;;;1.67;;
32200;SDS011;18701;45.588;5.288;2023-08-24T12:58:00;8.65;;;2.08;;
32200;SDS011;18701;45.588;5.288;2023-08-24T13:00:26;10.20;;;2.40;;
32200;SDS011;18701;45.588;5.288;2023-08-24T13:02:55;5.97;;;1.40;;
32200;SDS011;18701;45.588;5.288;2023-08-24T13:05:21;20.10;;;2.13;;
32200;SDS011;18701;45.588;5.288;2023-08-24T13:07:47;13.82;;;1.98;;
32200;SDS011;18701;45.588;5.288;2023-08-24T13:10:13;10.75;;;2.75;;
32200;SDS011;18701;45.588;5.288;2023-08-24T13:12:39;10.93;;;2.40;;
32200;SDS011;18701;45.588;5.288;2023-08-24T13:15:05;16.33;;;2.50;;
32200;SDS011;18701;45.588;5.288;2023-08-24T13:17:31;13.32;;;2.50;;
32200;SDS011;18701;45.588;5.288;2023-08-24T13:19:59;11.82;;;2.03;;
32200;SDS011;18701;45.588;5.288;2023-08-24T13:22:24;12.55;;;2.05;;
32200;SDS011;18701;45.588;5.288;2023-08-24T13:24:50;12.98;;;2.00;;
32200;SDS011;18701;45.588;5.288;2023-08-24T13:27:16;10.60;;;2.70;;
32200;SDS011;18701;45.588;5.288;2023-08-24T13:29:41;10.23;;;2.13;;
32200;SDS011;18701;45.588;5.288;2023-08-24T13:32:07;10.57;;;2.50;;
32200;SDS011;18701;45.588;5.288;2023-08-24T13:34:33;6.80;;;2.20;;
32200;SDS011;18701;45.588;5.288;2023-08-24T13:36:59;14.38;;;3.05;;
32200;SDS011;18701;45.588;5.288;2023-08-24T13:39:28;17.52;;;2.97;;
32200;SDS011;18701;45.588;5.288;2023-08-24T13:41:55;13.57;;;2.30;;
32200;SDS011;18701;45.588;5.288;2023-08-24T13:44:21;17.35;;;2.53;;
32200;SDS011;18701;45.588;5.288;2023-08-24T13:46:47;11.55;;;2.30;;
32200;SDS011;18701;45.588;5.288;2023-08-24T13:49:13;15.13;;;3.03;;
32200;SDS011;18701;45.588;5.288;2023-08-24T13:51:39;12.50;;;2.30;;
32200;SDS011;18701;45.588;5.288;2023-08-24T13:54:12;14.45;;;2.53;;
32200;SDS011;18701;45.588;5.288;2023-08-24T13:56:43;15.27;;;3.10;;
32200;SDS011;18701;45.588;5.288;2023-08-24T13:59:09;9.48;;;2.05;;
32200;SDS011;18701;45.588;5.288;2023-08-24T14:01:36;10.77;;;2.72;;
32200;SDS011;18701;45.588;5.288;2023-08-24T14:04:02;17.02;;;2.83;;
32200;SDS011;18701;45.588;5.288;2023-08-24T14:06:29;12.00;;;2.47;;
32200;SDS011;18701;45.588;5.288;2023-08-24T14:08:58;13.98;;;2.75;;
32200;SDS011;18701;45.588;5.288;2023-08-24T14:11:24;11.68;;;2.90;;
32200;SDS011;18701;45.588;5.288;2023-08-24T14:13:50;9.57;;;2.75;;
32200;SDS011;18701;45.588;5.288;2023-08-24T14:16:17;12.70;;;2.42;;
32200;SDS011;18701;45.588;5.288;2023-08-24T14:18:42;9.38;;;2.50;;
32200;SDS011;18701;45.588;5.288;2023-08-24T14:21:08;15.30;;;2.50;;
32200;SDS011;18701;45.588;5.288;2023-08-24T14:23:35;9.23;;;2.75;;
32200;SDS011;18701;45.588;5.288;2023-08-24T14:26:01;14.18;;;3.08;;
32200;SDS011;18701;45.588;5.288;2023-08-24T14:28:26;12.10;;;2.92;;
32200;SDS011;18701;45.588;5.288;2023-08-24T14:31:24;14.30;;;3.10;;
32200;SDS011;18701;45.588;5.288;2023-08-24T14:33:51;17.20;;;2.80;;
32200;SDS011;18701;45.588;5.288;2023-08-24T14:36:18;16.42;;;2.28;;
32200;SDS011;18701;45.588;5.288;2023-08-24T14:38:47;11.88;;;2.42;;
32200;SDS011;18701;45.588;5.288;2023-08-24T14:41:13;12.40;;;2.85;;
32200;SDS011;18701;45.588;5.288;2023-08-24T14:43:40;11.13;;;2.42;;
32200;SDS011;18701;45.588;5.288;2023-08-24T14:46:07;10.55;;;2.80;;
32200;SDS011;18701;45.588;5.288;2023-08-24T14:48:33;12.07;;;2.80;;
32200;SDS011;18701;45.588;5.288;2023-08-24T14:50:59;11.70;;;2.50;;
32200;SDS011;18701;45.588;5.288;2023-08-24T14:53:26;13.02;;;3.08;;
32200;SDS011;18701;45.588;5.288;2023-08-24T14:55:52;26.77;;;3.30;;
32200;SDS011;18701;45.588;5.288;2023-08-24T14:58:22;16.23;;;2.67;;
32200;SDS011;18701;45.588;5.288;2023-08-24T15:00:53;22.48;;;3.05;;
32200;SDS011;18701;45.588;5.288;2023-08-24T15:03:20;14.00;;;3.38;;
32200;SDS011;18701;45.588;5.288;2023-08-24T15:05:55;12.75;;;2.83;;
32200;SDS011;18701;45.588;5.288;2023-08-24T15:08:22;11.88;;;3.10;;